Observation data for Tatum on 10/18/2019      Previous  Date       Current Mesonet Observations  Soil Data  Daily Summary Page  Observations in Plain Language
KTAT 180500Z 18011KT 14/03 A2988 RMK A01 T01430032  RH  048%=      5-min Rain = 0
KTAT 180505Z 18011KT 14/03 A2988 RMK A01 T01440032  RH  048%=      5-min Rain = 0
KTAT 180510Z 18011KT 15/03 A2988 RMK A01 T01450032  RH  047%=      5-min Rain = 0
KTAT 180515Z 18011KT 14/03 A2988 RMK A01 T01440032  RH  048%=      5-min Rain = 0
KTAT 180520Z 17012KT 15/04 A2987 RMK A01 T01470035  RH  048%=      5-min Rain = 0
KTAT 180525Z 18011KT 15/04 A2987 RMK A01 T01480037  RH  048%=      5-min Rain = 0
KTAT 180530Z 18011KT 15/04 A2987 RMK A01 T01470039  RH  049%=      5-min Rain = 0
KTAT 180535Z 18011KT 15/04 A2987 RMK A01 T01460041  RH  050%=      5-min Rain = 0
KTAT 180540Z 18012KT 15/04 A2987 RMK A01 T01470044  RH  051%=      5-min Rain = 0
KTAT 180545Z 18011KT 15/05 A2987 RMK A01 T01460046  RH  052%=      5-min Rain = 0
KTAT 180550Z 18011KT 14/05 A2987 RMK A01 T01440048  RH  053%=      5-min Rain = 0
KTAT 180555Z 18011KT 14/05 A2987 RMK A01 T01440050  RH  055%=      5-min Rain = 0
KTAT 180600Z 18012KT 14/05 A2987 RMK A01 T01440054  RH  056%=      5-min Rain = 0
KTAT 180605Z 18013KT 15/06 A2986 RMK A01 T01460057  RH  056%=      5-min Rain = 0
KTAT 180610Z 17012KT 15/06 A2986 RMK A01 T01470059  RH  057%=      5-min Rain = 0
KTAT 180615Z 18014KT 15/06 A2986 RMK A01 T01480060  RH  057%=      5-min Rain = 0
KTAT 180620Z 18014KT 15/06 A2986 RMK A01 T01490062  RH  057%=      5-min Rain = 0
KTAT 180625Z 18014KT 15/06 A2986 RMK A01 T01500063  RH  057%=      5-min Rain = 0
KTAT 180630Z 18013KT 15/06 A2986 RMK A01 T01490064  RH  058%=      5-min Rain = 0
KTAT 180635Z 18014KT 15/07 A2986 RMK A01 T01490065  RH  058%=      5-min Rain = 0
KTAT 180640Z 18014KT 15/07 A2985 RMK A01 T01480065  RH  059%=      5-min Rain = 0
KTAT 180645Z 18013G18KT 15/07 A2985 RMK A01 T01480065  RH  059%=      5-min Rain = 0
KTAT 180650Z 18013KT 15/07 A2985 RMK A01 T01460065  RH  060%=      5-min Rain = 0
KTAT 180655Z 18014G19KT 15/07 A2985 RMK A01 T01450065  RH  060%=      5-min Rain = 0
KTAT 180700Z 18013KT 15/07 A2985 RMK A01 T01450066  RH  061%=      5-min Rain = 0
KTAT 180705Z 18013KT 14/07 A2985 RMK A01 T01440067  RH  061%=      5-min Rain = 0
KTAT 180710Z 18012KT 14/07 A2985 RMK A01 T01430067  RH  062%=      5-min Rain = 0
KTAT 180715Z 20011KT 14/07 A2986 RMK A01 T01420068  RH  063%=      5-min Rain = 0
KTAT 180720Z 19011KT 14/07 A2985 RMK A01 T01410068  RH  063%=      5-min Rain = 0
KTAT 180725Z 18011KT 14/07 A2985 RMK A01 T01390069  RH  064%=      5-min Rain = 0
KTAT 180730Z 18010KT 14/07 A2985 RMK A01 T01380069  RH  065%=      5-min Rain = 0
KTAT 180735Z 18009KT 14/07 A2985 RMK A01 T01360069  RH  066%=      5-min Rain = 0
KTAT 180740Z 18010KT 13/07 A2985 RMK A01 T01340070  RH  067%=      5-min Rain = 0
KTAT 180745Z 18010KT 13/07 A2985 RMK A01 T01320070  RH  068%=      5-min Rain = 0
KTAT 180750Z 18010KT 13/07 A2985 RMK A01 T01310070  RH  068%=      5-min Rain = 0
KTAT 180755Z 18010KT 13/07 A2985 RMK A01 T01300071  RH  069%=      5-min Rain = 0
KTAT 180800Z 17010KT 13/07 A2985 RMK A01 T01280071  RH  070%=      5-min Rain = 0
KTAT 180805Z 17010KT 13/07 A2985 RMK A01 T01260071  RH  071%=      5-min Rain = 0
KTAT 180810Z 18009KT 13/07 A2985 RMK A01 T01250072  RH  072%=      5-min Rain = 0
KTAT 180815Z 18009KT 13/07 A2985 RMK A01 T01250073  RH  073%=      5-min Rain = 0
KTAT 180820Z 18010KT 13/08 A2985 RMK A01 T01260075  RH  073%=      5-min Rain = 0
KTAT 180825Z 18011G16KT 13/08 A2985 RMK A01 T01260076  RH  074%=      5-min Rain = 0
KTAT 180830Z 18011KT 13/08 A2984 RMK A01 T01270077  RH  074%=      5-min Rain = 0
KTAT 180835Z 19010KT 13/08 A2984 RMK A01 T01270078  RH  074%=      5-min Rain = 0
KTAT 180840Z 19010KT 13/08 A2984 RMK A01 T01270079  RH  075%=      5-min Rain = 0
KTAT 180845Z 18011KT 13/08 A2984 RMK A01 T01260080  RH  075%=      5-min Rain = 0
KTAT 180850Z 18011KT 13/08 A2984 RMK A01 T01270081  RH  076%=      5-min Rain = 0
KTAT 180855Z 18011KT 13/08 A2984 RMK A01 T01260081  RH  076%=      5-min Rain = 0
KTAT 180900Z 19011KT 13/08 A2984 RMK A01 T01250082  RH  077%=      5-min Rain = 0
KTAT 180905Z 19010G15KT 12/08 A2984 RMK A01 T01240082  RH  077%=      5-min Rain = 0
KTAT 180910Z 18011KT 12/08 A2983 RMK A01 T01240082  RH  078%=      5-min Rain = 0
KTAT 180915Z 18011G16KT 12/08 A2983 RMK A01 T01240082  RH  078%=      5-min Rain = 0
KTAT 180920Z 18011KT 12/08 A2983 RMK A01 T01230083  RH  079%=      5-min Rain = 0
KTAT 180925Z 18012KT 12/08 A2983 RMK A01 T01230083  RH  079%=      5-min Rain = 0
KTAT 180930Z 18012KT 12/08 A2983 RMK A01 T01230084  RH  079%=      5-min Rain = 0
KTAT 180935Z 18011KT 12/08 A2982 RMK A01 T01230084  RH  079%=      5-min Rain = 0
KTAT 180940Z 18011KT 12/08 A2982 RMK A01 T01220084  RH  080%=      5-min Rain = 0
KTAT 180945Z 19011KT 12/08 A2982 RMK A01 T01220084  RH  080%=      5-min Rain = 0
KTAT 180950Z 19012KT 12/09 A2982 RMK A01 T01210085  RH  081%=      5-min Rain = 0
KTAT 180955Z 19011KT 12/09 A2982 RMK A01 T01210085  RH  081%=      5-min Rain = 0
KTAT 181000Z 19010KT 12/09 A2982 RMK A01 T01210085  RH  081%=      5-min Rain = 0
KTAT 181005Z 19010KT 12/09 A2982 RMK A01 T01200085  RH  081%=      5-min Rain = 0
KTAT 181010Z 19010KT 12/09 A2982 RMK A01 T01190085  RH  082%=      5-min Rain = 0
KTAT 181015Z 19010KT 12/09 A2982 RMK A01 T01180085  RH  082%=      5-min Rain = 0
KTAT 181020Z 19011KT 12/09 A2982 RMK A01 T01180085  RH  083%=      5-min Rain = 0
KTAT 181025Z 19011KT 12/09 A2982 RMK A01 T01170085  RH  083%=      5-min Rain = 0
KTAT 181030Z 19010KT 12/09 A2982 RMK A01 T01170085  RH  083%=      5-min Rain = 0
KTAT 181035Z 19010KT 12/09 A2982 RMK A01 T01150085  RH  084%=      5-min Rain = 0
KTAT 181040Z 18010KT 12/09 A2982 RMK A01 T01150085  RH  084%=      5-min Rain = 0
KTAT 181045Z 18009KT 11/08 A2982 RMK A01 T01140084  RH  085%=      5-min Rain = 0
KTAT 181050Z 19008KT 11/08 A2982 RMK A01 T01130084  RH  085%=      5-min Rain = 0
KTAT 181055Z 19008KT 11/08 A2982 RMK A01 T01120084  RH  085%=      5-min Rain = 0
KTAT 181100Z 19007KT 11/08 A2983 RMK A01 T01110084  RH  086%=      5-min Rain = 0
KTAT 181105Z 18007KT 11/08 A2983 RMK A01 T01100084  RH  086%=      5-min Rain = 0
KTAT 181110Z 19007KT 11/08 A2982 RMK A01 T01090083  RH  086%=      5-min Rain = 0
KTAT 181115Z 19008KT 11/08 A2982 RMK A01 T01090084  RH  087%=      5-min Rain = 0
KTAT 181120Z 18009KT 11/09 A2982 RMK A01 T01100085  RH  087%=      5-min Rain = 0
KTAT 181125Z 18009KT 11/09 A2982 RMK A01 T01100085  RH  087%=      5-min Rain = 0
KTAT 181130Z 18009KT 11/08 A2982 RMK A01 T01090084  RH  087%=      5-min Rain = 0
KTAT 181135Z 19009KT 11/09 A2982 RMK A01 T01090085  RH  087%=      5-min Rain = 0
KTAT 181140Z 18009KT 11/09 A2982 RMK A01 T01090085  RH  087%=      5-min Rain = 0
KTAT 181145Z 19009KT 11/08 A2982 RMK A01 T01080084  RH  088%=      5-min Rain = 0
KTAT 181150Z 19008KT 11/09 A2982 RMK A01 T01080085  RH  088%=      5-min Rain = 0
KTAT 181155Z 19009KT 11/09 A2982 RMK A01 T01090085  RH  088%=      5-min Rain = 0
KTAT 181200Z 19009KT 11/09 A2982 RMK A01 T01090085  RH  088%=      5-min Rain = 0
KTAT 181205Z 19009KT 11/09 A2982 RMK A01 T01100086  RH  088%=      5-min Rain = 0
KTAT 181210Z 19009KT 11/09 A2982 RMK A01 T01100086  RH  088%=      5-min Rain = 0
KTAT 181215Z 20009KT 11/09 A2982 RMK A01 T01090085  RH  088%=      5-min Rain = 0
KTAT 181220Z 20009KT 11/09 A2982 RMK A01 T01090085  RH  088%=      5-min Rain = 0
KTAT 181225Z 20008KT 11/09 A2982 RMK A01 T01090085  RH  088%=      5-min Rain = 0
KTAT 181230Z 20008KT 11/09 A2982 RMK A01 T01080085  RH  088%=      5-min Rain = 0
KTAT 181235Z 20008KT 11/09 A2982 RMK A01 T01070085  RH  088%=      5-min Rain = 0
KTAT 181240Z 20008KT 11/09 A2982 RMK A01 T01070085  RH  088%=      5-min Rain = 0
KTAT 181245Z 19008KT 11/09 A2982 RMK A01 T01070085  RH  089%=      5-min Rain = 0
KTAT 181250Z 19009KT 11/09 A2982 RMK A01 T01070085  RH  089%=      5-min Rain = 0
KTAT 181255Z 19008KT 11/09 A2982 RMK A01 T01060085  RH  089%=      5-min Rain = 0
KTAT 181300Z 19008KT 11/09 A2982 RMK A01 T01060085  RH  089%=      5-min Rain = 0
KTAT 181305Z 19008KT 11/09 A2982 RMK A01 T01060085  RH  089%=      5-min Rain = 0
KTAT 181310Z 18008KT 11/09 A2982 RMK A01 T01070086  RH  089%=      5-min Rain = 0
KTAT 181315Z 19008KT 11/09 A2981 RMK A01 T01090086  RH  089%=      5-min Rain = 0
KTAT 181320Z 19008KT 11/09 A2982 RMK A01 T01100086  RH  088%=      5-min Rain = 0
KTAT 181325Z 20008KT 11/09 A2982 RMK A01 T01130087  RH  087%=      5-min Rain = 0
KTAT 181330Z 20009KT 12/09 A2982 RMK A01 T01150088  RH  085%=      5-min Rain = 0
KTAT 181335Z 20009KT 12/09 A2981 RMK A01 T01180088  RH  084%=      5-min Rain = 0
KTAT 181340Z 20010KT 12/09 A2981 RMK A01 T01190088  RH  084%=      5-min Rain = 0
KTAT 181345Z 19010KT 12/09 A2981 RMK A01 T01220089  RH  083%=      5-min Rain = 0
KTAT 181350Z 19011KT 13/09 A2981 RMK A01 T01250090  RH  081%=      5-min Rain = 0
KTAT 181355Z 19011KT 13/09 A2981 RMK A01 T01300091  RH  080%=      5-min Rain = 0
KTAT 181400Z 19012KT 14/09 A2981 RMK A01 T01350092  RH  078%=      5-min Rain = 0
KTAT 181405Z 20012KT 14/09 A2981 RMK A01 T01380092  RH  076%=      5-min Rain = 0
KTAT 181410Z 20011KT 14/09 A2981 RMK A01 T01430094  RH  075%=      5-min Rain = 0
KTAT 181415Z 20012KT 15/09 A2981 RMK A01 T01470094  RH  073%=      5-min Rain = 0
KTAT 181420Z 20011KT 15/10 A2982 RMK A01 T01510095  RH  071%=      5-min Rain = 0
KTAT 181425Z 20011KT 16/10 A2982 RMK A01 T01570097  RH  069%=      5-min Rain = 0
KTAT 181430Z 21012KT 16/10 A2982 RMK A01 T01630098  RH  067%=      5-min Rain = 0
KTAT 181435Z 21011KT 17/10 A2982 RMK A01 T01690099  RH  065%=      5-min Rain = 0
KTAT 181440Z 20014KT 18/10 A2982 RMK A01 T01750099  RH  063%=      5-min Rain = 0
KTAT 181445Z 21014KT 18/10 A2982 RMK A01 T01800100  RH  062%=      5-min Rain = 0
KTAT 181450Z 21014KT 18/10 A2982 RMK A01 T01840100  RH  060%=      5-min Rain = 0
KTAT 181455Z 21013KT 19/10 A2982 RMK A01 T01880102  RH  059%=      5-min Rain = 0
KTAT 181500Z 21013KT 19/10 A2982 RMK A01 T01930103  RH  058%=      5-min Rain = 0
KTAT 181505Z 21012KT 20/11 A2982 RMK A01 T01990105  RH  057%=      5-min Rain = 0
KTAT 181510Z 21013KT 20/11 A2982 RMK A01 T02040105  RH  055%=      5-min Rain = 0
KTAT 181515Z 22013KT 21/11 A2982 RMK A01 T02090107  RH  054%=      5-min Rain = 0
KTAT 181520Z 22013KT 21/11 A2982 RMK A01 T02130107  RH  052%=      5-min Rain = 0
KTAT 181525Z 22014G19KT 22/11 A2982 RMK A01 T02170108  RH  052%=      5-min Rain = 0
KTAT 181530Z 22015G20KT 22/11 A2982 RMK A01 T02230110  RH  050%=      5-min Rain = 0
KTAT 181535Z 22016G21KT 23/11 A2982 RMK A01 T02260109  RH  049%=      5-min Rain = 0
KTAT 181540Z 22018KT 23/11 A2982 RMK A01 T02280109  RH  049%=      5-min Rain = 0
KTAT 181545Z 21018G23KT 23/11 A2982 RMK A01 T02300109  RH  048%=      5-min Rain = 0
KTAT 181550Z 22020KT 23/11 A2982 RMK A01 T02320107  RH  047%=      5-min Rain = 0
KTAT 181555Z 22020G28KT 23/11 A2982 RMK A01 T02330107  RH  046%=      5-min Rain = 0
KTAT 181600Z 22019G25KT 23/11 A2982 RMK A01 T02340106  RH  046%=      5-min Rain = 0
KTAT 181605Z 22019G25KT 24/11 A2981 RMK A01 T02350105  RH  045%=      5-min Rain = 0
KTAT 181610Z 23020KT 23/10 A2981 RMK A01 T02340102  RH  045%=      5-min Rain = 0
KTAT 181615Z 23018KT 24/10 A2981 RMK A01 T02360102  RH  044%=      5-min Rain = 0
KTAT 181620Z 23019G24KT 24/10 A2981 RMK A01 T02370102  RH  044%=      5-min Rain = 0
KTAT 181625Z 23021G26KT 24/10 A2981 RMK A01 T02370100  RH  043%=      5-min Rain = 0
KTAT 181630Z 22021KT 24/10 A2981 RMK A01 T02390100  RH  043%=      5-min Rain = 0
KTAT 181635Z 22019G24KT 24/10 A2981 RMK A01 T02400099  RH  042%=      5-min Rain = 0
KTAT 181640Z 23020G25KT 24/10 A2981 RMK A01 T02420097  RH  041%=      5-min Rain = 0
KTAT 181645Z 23020G28KT 24/10 A2981 RMK A01 T02430096  RH  041%=      5-min Rain = 0
KTAT 181650Z 23019G24KT 24/09 A298 RMK A01 T02440090  RH  039%=      5-min Rain = 0
KTAT 181655Z 23019G24KT 25/09 A298 RMK A01 T02470091  RH  038%=      5-min Rain = 0
KTAT 181700Z 23020KT 25/09 A298 RMK A01 T02480085  RH  036%=      5-min Rain = 0
KTAT 181705Z 23023G28KT 25/08 A298 RMK A01 T02480078  RH  035%=      5-min Rain = 0
KTAT 181710Z 23020G26KT 25/08 A298 RMK A01 T02490078  RH  034%=      5-min Rain = 0
KTAT 181715Z 23022G27KT 25/07 A298 RMK A01 T02490072  RH  033%=      5-min Rain = 0
KTAT 181720Z 23021G26KT 25/07 A298 RMK A01 T02510071  RH  032%=      5-min Rain = 0
KTAT 181725Z 23021G28KT 25/07 A2979 RMK A01 T02520072  RH  033%=      5-min Rain = 0
KTAT 181730Z 24021G29KT 26/07 A2979 RMK A01 T02560070  RH  031%=      5-min Rain = 0
KTAT 181735Z 24021G27KT 26/07 A2979 RMK A01 T02550070  RH  031%=      5-min Rain = 0
KTAT 181740Z 24021G29KT 26/07 A2979 RMK A01 T02550074  RH  032%=      5-min Rain = 0
KTAT 181745Z 24022G29KT 25/07 A2979 RMK A01 T02530074  RH  033%=      5-min Rain = 0
KTAT 181750Z 24020G29KT 26/08 A2979 RMK A01 T02550075  RH  033%=      5-min Rain = 0
KTAT 181755Z 24020G25KT 25/07 A2978 RMK A01 T02540073  RH  032%=      5-min Rain = 0
KTAT 181800Z 24021G28KT 26/07 A2978 RMK A01 T02550074  RH  033%=      5-min Rain = 0
KTAT 181805Z 23019G26KT 26/07 A2978 RMK A01 T02570070  RH  031%=      5-min Rain = 0
KTAT 181810Z 24018G25KT 26/07 A2978 RMK A01 T02590073  RH  031%=      5-min Rain = 0
KTAT 181815Z 25020KT 26/07 A2977 RMK A01 T02580069  RH  031%=      5-min Rain = 0
KTAT 181820Z 24020G29KT 26/07 A2977 RMK A01 T02570068  RH  031%=      5-min Rain = 0
KTAT 181825Z 24020G26KT 26/07 A2977 RMK A01 T02600069  RH  030%=      5-min Rain = 0
KTAT 181830Z 24019G25KT 26/07 A2977 RMK A01 T02600069  RH  030%=      5-min Rain = 0
KTAT 181835Z 24020G26KT 26/07 A2977 RMK A01 T02600068  RH  030%=      5-min Rain = 0
KTAT 181840Z 24021G28KT 26/07 A2976 RMK A01 T02620069  RH  030%=      5-min Rain = 0
KTAT 181845Z 24021G26KT 26/07 A2976 RMK A01 T02600070  RH  031%=      5-min Rain = 0
KTAT 181850Z 24018G26KT 26/07 A2976 RMK A01 T02620070  RH  030%=      5-min Rain = 0
KTAT 181855Z 25019G26KT 26/07 A2976 RMK A01 T02620068  RH  030%=      5-min Rain = 0
KTAT 181900Z 24020G27KT 26/07 A2975 RMK A01 T02600066  RH  030%=      5-min Rain = 0
KTAT 181905Z 24021G27KT 26/06 A2975 RMK A01 T02620064  RH  029%=      5-min Rain = 0
KTAT 181910Z 24022G29KT 26/06 A2975 RMK A01 T02630064  RH  029%=      5-min Rain = 0
KTAT 181915Z 25020G26KT 26/07 A2975 RMK A01 T02640065  RH  029%=      5-min Rain = 0
KTAT 181920Z 24020G25KT 26/06 A2974 RMK A01 T02640063  RH  028%=      5-min Rain = 0
KTAT 181925Z 25019G26KT 27/07 A2974 RMK A01 T02650066  RH  029%=      5-min Rain = 0
KTAT 181930Z 26020G29KT 26/06 A2974 RMK A01 T02640061  RH  028%=      5-min Rain = 0
KTAT 181935Z 25019G26KT 26/06 A2973 RMK A01 T02620058  RH  028%=      5-min Rain = 0
KTAT 181940Z 24019G29KT 27/06 A2973 RMK A01 T02650060  RH  028%=      5-min Rain = 0
KTAT 181945Z 26020G26KT 27/06 A2973 RMK A01 T02650059  RH  027%=      5-min Rain = 0
KTAT 181950Z 26021G28KT 27/05 A2973 RMK A01 T02660047  RH  025%=      5-min Rain = 0
KTAT 181955Z 24020G27KT 27/06 A2973 RMK A01 T02680055  RH  026%=      5-min Rain = 0
KTAT 182000Z 24019G26KT 27/06 A2973 RMK A01 T02680059  RH  027%=      5-min Rain = 0
KTAT 182005Z 23018G23KT 27/06 A2973 RMK A01 T02700059  RH  027%=      5-min Rain = 0
KTAT 182010Z 24017G26KT 27/06 A2972 RMK A01 T02710057  RH  026%=      5-min Rain = 0
KTAT 182015Z 23020G25KT 27/05 A2972 RMK A01 T02730048  RH  024%=      5-min Rain = 0
KTAT 182020Z 25020G27KT 27/04 A2972 RMK A01 T02730043  RH  023%=      5-min Rain = 0
KTAT 182025Z 25020G26KT 27/04 A2971 RMK A01 T02720040  RH  023%=      5-min Rain = 0
KTAT 182030Z 24016G21KT 27/04 A2971 RMK A01 T02720039  RH  023%=      5-min Rain = 0
KTAT 182035Z 25015G23KT 27/04 A2971 RMK A01 T02690037  RH  023%=      5-min Rain = 0
KTAT 182040Z 25017G25KT 26/03 A2971 RMK A01 T02640029  RH  022%=      5-min Rain = 0
KTAT 182045Z 24016G21KT 26/03 A2971 RMK A01 T02590030  RH  023%=      5-min Rain = 0
KTAT 182050Z 25016G25KT 27/03 A2971 RMK A01 T02680034  RH  023%=      5-min Rain = 0
KTAT 182055Z 25017G23KT 27/03 A2971 RMK A01 T02720032  RH  022%=      5-min Rain = 0
KTAT 182100Z 24015KT 27/04 A2971 RMK A01 T02740035  RH  022%=      5-min Rain = 0
KTAT 182105Z 26017G23KT 28/03 A2971 RMK A01 T02750033  RH  022%=      5-min Rain = 0
KTAT 182110Z 26017G22KT 27/03 A2971 RMK A01 T02730031  RH  021%=      5-min Rain = 0
KTAT 182115Z 25014G20KT 28/04 A2971 RMK A01 T02750036  RH  022%=      5-min Rain = 0
KTAT 182120Z 25016G24KT 28/04 A2971 RMK A01 T02750035  RH  022%=      5-min Rain = 0
KTAT 182125Z 24019G24KT 27/03 A2971 RMK A01 T02740027  RH  021%=      5-min Rain = 0
KTAT 182130Z 24018KT 27/03 A2971 RMK A01 T02740028  RH  021%=      5-min Rain = 0
KTAT 182135Z 25017G22KT 27/03 A2971 RMK A01 T02740031  RH  021%=      5-min Rain = 0
KTAT 182140Z 28016G22KT 27/03 A2971 RMK A01 T02730032  RH  022%=      5-min Rain = 0
KTAT 182145Z 26019G25KT 27/01 A2971 RMK A01 T02720013  RH  019%=      5-min Rain = 0
KTAT 182150Z 25020G25KT 27/01 A2972 RMK A01 T02710009  RH  018%=      5-min Rain = 0
KTAT 182155Z 26018G23KT 27/01 A2972 RMK A01 T02680009  RH  019%=      5-min Rain = 0
KTAT 182200Z 26016KT 27/01 A2972 RMK A01 T02690014  RH  019%=      5-min Rain = 0
KTAT 182205Z 25017G22KT 27/01 A2972 RMK A01 T02670014  RH  020%=      5-min Rain = 0
KTAT 182210Z 25016KT 26/01 A2972 RMK A01 T02610012  RH  020%=      5-min Rain = 0
KTAT 182215Z 25015KT 25/01 A2972 RMK A01 T02530013  RH  021%=      5-min Rain = 0
KTAT 182220Z 25014KT 25/01 A2972 RMK A01 T02510014  RH  022%=      5-min Rain = 0
KTAT 182225Z 25014G19KT 25/02 A2972 RMK A01 T02530018  RH  022%=      5-min Rain = 0
KTAT 182230Z 26016G21KT 26/02 A2972 RMK A01 T02550019  RH  022%=      5-min Rain = 0
KTAT 182235Z 25017G23KT 25/02 A2972 RMK A01 T02540018  RH  022%=      5-min Rain = 0
KTAT 182240Z 25015G21KT 26/02 A2972 RMK A01 T02590021  RH  022%=      5-min Rain = 0
KTAT 182245Z 26016G21KT 26/02 A2972 RMK A01 T02550020  RH  022%=      5-min Rain = 0
KTAT 182250Z 26017G22KT 25/02 A2973 RMK A01 T02530019  RH  022%=      5-min Rain = 0
KTAT 182255Z 26015G21KT 25/02 A2973 RMK A01 T02510021  RH  023%=      5-min Rain = 0
KTAT 182300Z 27016KT 25/02 A2973 RMK A01 T02510019  RH  022%=      5-min Rain = 0
KTAT 182305Z 27019G24KT 25/02 A2973 RMK A01 T02540017  RH  022%=      5-min Rain = 0
KTAT 182310Z 27018G24KT 25/02 A2973 RMK A01 T02540015  RH  021%=      5-min Rain = 0
KTAT 182315Z 26015G20KT 25/02 A2973 RMK A01 T02490018  RH  022%=      5-min Rain = 0
KTAT 182320Z 26016G22KT 25/02 A2973 RMK A01 T02460018  RH  023%=      5-min Rain = 0
KTAT 182325Z 27014KT 24/02 A2973 RMK A01 T02430017  RH  023%=      5-min Rain = 0
KTAT 182330Z 27016G22KT 24/02 A2974 RMK A01 T02430016  RH  023%=      5-min Rain = 0
KTAT 182335Z 30024G30KT 23/03 A2975 RMK A01 T02290034  RH  028%=      5-min Rain = 0
KTAT 182340Z 31022G28KT 22/04 A2976 RMK A01 T02150040  RH  032%=      5-min Rain = 0
KTAT 182345Z 31023G31KT 21/04 A2976 RMK A01 T02120040  RH  033%=      5-min Rain = 0
KTAT 182350Z 31020G30KT 21/04 A2977 RMK A01 T02080040  RH  034%=      5-min Rain = 0
KTAT 182355Z 30018G23KT 21/04 A2977 RMK A01 T02060042  RH  035%=      5-min Rain = 0
KTAT 190000Z 30018G23KT 21/04 A2978 RMK A01 T02050043  RH  035%=      5-min Rain = 0
KTAT 190005Z 30016G21KT 21/04 A2978 RMK A01 T02050043  RH  035%=      5-min Rain = 0
KTAT 190010Z 29013KT 20/04 A2979 RMK A01 T02030044  RH  036%=      5-min Rain = 0
KTAT 190015Z 30016KT 20/04 A2979 RMK A01 T02020044  RH  036%=      5-min Rain = 0
KTAT 190020Z 30016KT 20/04 A2979 RMK A01 T02010044  RH  036%=      5-min Rain = 0
KTAT 190025Z 29013KT 20/05 A298 RMK A01 T01990045  RH  037%=      5-min Rain = 0
KTAT 190030Z 29012KT 20/05 A2979 RMK A01 T01970047  RH  038%=      5-min Rain = 0
KTAT 190035Z 30011KT 19/05 A2979 RMK A01 T01940048  RH  039%=      5-min Rain = 0
KTAT 190040Z 30011G16KT 19/05 A2979 RMK A01 T01910048  RH  040%=      5-min Rain = 0
KTAT 190045Z 29012KT 19/04 A298 RMK A01 T01890044  RH  039%=      5-min Rain = 0
KTAT 190050Z 29011KT 19/04 A298 RMK A01 T01870042  RH  039%=      5-min Rain = 0
KTAT 190055Z 28011KT 19/04 A298 RMK A01 T01860042  RH  039%=      5-min Rain = 0
KTAT 190100Z 29011KT 18/04 A298 RMK A01 T01830044  RH  040%=      5-min Rain = 0
KTAT 190105Z 28011KT 18/05 A298 RMK A01 T01810045  RH  041%=      5-min Rain = 0
KTAT 190110Z 28011KT 18/05 A298 RMK A01 T01790045  RH  042%=      5-min Rain = 0
KTAT 190115Z 28010KT 18/05 A298 RMK A01 T01770046  RH  043%=      5-min Rain = 0
KTAT 190120Z 27009KT 17/05 A2981 RMK A01 T01710048  RH  045%=      5-min Rain = 0
KTAT 190125Z 26009KT 17/05 A2981 RMK A01 T01660049  RH  047%=      5-min Rain = 0
KTAT 190130Z 26008KT 16/05 A2981 RMK A01 T01640050  RH  048%=      5-min Rain = 0
KTAT 190135Z 26007KT 16/05 A2981 RMK A01 T01610051  RH  049%=      5-min Rain = 0
KTAT 190140Z 27006KT 16/05 A2981 RMK A01 T01580052  RH  050%=      5-min Rain = 0
KTAT 190145Z 27006KT 15/05 A2981 RMK A01 T01540053  RH  052%=      5-min Rain = 0
KTAT 190150Z 27006KT 15/05 A2981 RMK A01 T01520053  RH  053%=      5-min Rain = 0
KTAT 190155Z 25006KT 15/05 A2981 RMK A01 T01480054  RH  055%=      5-min Rain = 0
KTAT 190200Z 24006KT 14/06 A2981 RMK A01 T01430056  RH  057%=      5-min Rain = 0
KTAT 190205Z 24007KT 14/06 A2981 RMK A01 T01370055  RH  059%=      5-min Rain = 0
KTAT 190210Z 25008KT 14/05 A2981 RMK A01 T01360054  RH  059%=      5-min Rain = 0
KTAT 190215Z 25009KT 14/05 A2981 RMK A01 T01360054  RH  059%=      5-min Rain = 0
KTAT 190220Z 25008KT 13/05 A2981 RMK A01 T01330054  RH  060%=      5-min Rain = 0
KTAT 190225Z 25009KT 13/06 A2981 RMK A01 T01310055  RH  061%=      5-min Rain = 0
KTAT 190230Z 25009KT 13/06 A2981 RMK A01 T01320055  RH  061%=      5-min Rain = 0
KTAT 190235Z 25009KT 13/06 A2981 RMK A01 T01330055  RH  061%=      5-min Rain = 0
KTAT 190240Z 25009KT 14/06 A2982 RMK A01 T01350055  RH  060%=      5-min Rain = 0
KTAT 190245Z 25010KT 14/06 A2982 RMK A01 T01410055  RH  057%=      5-min Rain = 0
KTAT 190250Z 26010KT 14/05 A2982 RMK A01 T01440054  RH  056%=      5-min Rain = 0
KTAT 190255Z 26010KT 15/05 A2982 RMK A01 T01460053  RH  055%=      5-min Rain = 0
KTAT 190300Z 26010KT 15/05 A2982 RMK A01 T01460052  RH  054%=      5-min Rain = 0
KTAT 190305Z 26009KT 15/05 A2982 RMK A01 T01460051  RH  054%=      5-min Rain = 0
KTAT 190310Z 26009KT 14/05 A2982 RMK A01 T01440051  RH  054%=      5-min Rain = 0
KTAT 190315Z 25009KT 14/05 A2982 RMK A01 T01420051  RH  055%=      5-min Rain = 0
KTAT 190320Z 25008KT 14/05 A2982 RMK A01 T01380051  RH  057%=      5-min Rain = 0
KTAT 190325Z 25008KT 13/05 A2983 RMK A01 T01340052  RH  059%=      5-min Rain = 0
KTAT 190330Z 24007KT 13/05 A2983 RMK A01 T01310052  RH  060%=      5-min Rain = 0
KTAT 190335Z 25007KT 13/05 A2983 RMK A01 T01260052  RH  062%=      5-min Rain = 0
KTAT 190340Z 25007KT 12/05 A2983 RMK A01 T01220053  RH  064%=      5-min Rain = 0
KTAT 190345Z 26008KT 12/05 A2983 RMK A01 T01190053  RH  065%=      5-min Rain = 0
KTAT 190350Z 26008KT 12/05 A2983 RMK A01 T01180053  RH  066%=      5-min Rain = 0
KTAT 190355Z 26007KT 12/05 A2983 RMK A01 T01190052  RH  065%=      5-min Rain = 0
KTAT 190400Z 27008KT 12/05 A2983 RMK A01 T01220052  RH  064%=      5-min Rain = 0
KTAT 190405Z 27008KT 13/05 A2983 RMK A01 T01270052  RH  062%=      5-min Rain = 0
KTAT 190410Z 27008KT 13/05 A2983 RMK A01 T01300053  RH  061%=      5-min Rain = 0
KTAT 190415Z 27008KT 13/05 A2983 RMK A01 T01320053  RH  060%=      5-min Rain = 0
KTAT 190420Z 28008KT 13/05 A2983 RMK A01 T01340054  RH  060%=      5-min Rain = 0
KTAT 190425Z 27007KT 13/05 A2984 RMK A01 T01330054  RH  060%=      5-min Rain = 0
KTAT 190430Z 27007KT 13/06 A2984 RMK A01 T01320055  RH  061%=      5-min Rain = 0
KTAT 190435Z 27007KT 13/06 A2984 RMK A01 T01310055  RH  061%=      5-min Rain = 0
KTAT 190440Z 27007KT 13/06 A2984 RMK A01 T01300056  RH  062%=      5-min Rain = 0
KTAT 190445Z 27008KT 13/06 A2984 RMK A01 T01310056  RH  062%=      5-min Rain = 0
KTAT 190450Z 27007KT 13/06 A2984 RMK A01 T01310056  RH  062%=      5-min Rain = 0
KTAT 190455Z 27008KT 13/06 A2984 RMK A01 T01300057  RH  063%=      5-min Rain = 0

Page generated in 0.0154 seconds.